Jefferson City, Missouri
Current Conditions -  °F | °C
As of 8:53 AM on Friday 28 Nov 2014 (Local Time) from KJEF Reporting Station
Clear Clear  
Wind Chill:   Ceiling: Unl
Heat Index:   Visibility: 10mi
Dew Point: -3°   Wind: 8mph
Humidity: 65%   Direction: 130°SE
Pressure: 30.11"   Gusts: NA
Location:  38.58°N, 92.18°W
Report Text: KJEF 281453Z 13007KT 110V180 10SM CLR 03/M03 A3011 RMK AO2 SLP192 T00331028 56027 $
Loading
Personal Weather Stations






























Interactive Weather Map New forecast layout! Learn more

10-Day Weather Forecast

Advertisements
Track Severe Weather on mobile